SCAR METAR and TAF weather

Enter ICAO airport designator
Station Type Date Time Source
SCAR METAR 2019/08/17 10:00 UTC NOAA

SCAR 171000Z 00000KT 9999 OVC022 15/10 Q1017


Station Type Date Time Source
SCAR Decoded METAR 2019/08/17 10:00 UTC NOAA

Station name not available
Aug 17, 2019 - 06:00 AM EDT / 2019.08.17 1000 UTC
Wind: Calm:0
Visibility: greater than 7 mile(s):0
Sky conditions: overcast
Temperature: 59 F (15 C)
Dew Point: 50 F (10 C)
Relative Humidity: 72%
Pressure (altimeter): 30.03 in. Hg (1017 hPa)
ob: SCAR 171000Z 00000KT 9999 OVC022 15/10 Q1017
cycle: 10

Station Type Date Time Source
SCAR TAF 2019/08/17 06:03 UTC NOAA

TAF TAF SCAR 170411Z 1706/1806 17004KT 9999 OVC020 TN15/1710Z TX17/1719Z
BECMG 1715/1717 22009KT CAVOK
BECMG 1722/1800 17004KT OVC025
BECMG 1804/1806 10004KT

Example: see airport list